地図

経路データ

SID SEASON NUMBER BASIN SUBBASIN NAME ISO_TIME NATURE LAT LON WMO_WIND WMO_PRES WMO_AGENCY TRACK_TYPE DIST2LAND LANDFALL IFLAG USA_AGENCY USA_ATCF_ID USA_LAT USA_LON USA_RECORD USA_STATUS USA_WIND USA_PRES USA_SSHS USA_R34_NE USA_R34_SE USA_R34_SW USA_R34_NW USA_R50_NE USA_R50_SE USA_R50_SW USA_R50_NW USA_R64_NE USA_R64_SE USA_R64_SW USA_R64_NW USA_POCI USA_ROCI USA_RMW USA_EYE TOKYO_LAT TOKYO_LON TOKYO_GRADE TOKYO_WIND TOKYO_PRES TOKYO_R50_DIR TOKYO_R50_LONG TOKYO_R50_SHORT TOKYO_R30_DIR TOKYO_R30_LONG TOKYO_R30_SHORT TOKYO_LAND CMA_LAT CMA_LON CMA_CAT CMA_WIND CMA_PRES HKO_LAT HKO_LON HKO_CAT HKO_WIND HKO_PRES NEWDELHI_LAT NEWDELHI_LON NEWDELHI_GRADE NEWDELHI_WIND NEWDELHI_PRES NEWDELHI_CI NEWDELHI_DP NEWDELHI_POCI REUNION_LAT REUNION_LON REUNION_TYPE REUNION_WIND REUNION_PRES REUNION_TNUM REUNION_CI REUNION_RMW REUNION_R34_NE REUNION_R34_SE REUNION_R34_SW REUNION_R34_NW REUNION_R50_NE REUNION_R50_SE REUNION_R50_SW REUNION_R50_NW REUNION_R64_NE REUNION_R64_SE REUNION_R64_SW REUNION_R64_NW BOM_LAT BOM_LON BOM_TYPE BOM_WIND BOM_PRES BOM_TNUM BOM_CI BOM_RMW BOM_R34_NE BOM_R34_SE BOM_R34_SW BOM_R34_NW BOM_R50_NE BOM_R50_SE BOM_R50_SW BOM_R50_NW BOM_R64_NE BOM_R64_SE BOM_R64_SW BOM_R64_NW BOM_ROCI BOM_POCI BOM_EYE BOM_POS_METHOD BOM_PRES_METHOD NADI_LAT NADI_LON NADI_CAT NADI_WIND NADI_PRES WELLINGTON_LAT WELLINGTON_LON WELLINGTON_WIND WELLINGTON_PRES DS824_LAT DS824_LON DS824_STAGE DS824_WIND DS824_PRES TD9636_LAT TD9636_LON TD9636_STAGE TD9636_WIND TD9636_PRES TD9635_LAT TD9635_LON TD9635_WIND TD9635_PRES TD9635_ROCI NEUMANN_LAT NEUMANN_LON NEUMANN_CLASS NEUMANN_WIND NEUMANN_PRES MLC_LAT MLC_LON MLC_CLASS MLC_WIND MLC_PRES USA_GUST BOM_GUST BOM_GUST_PER REUNION_GUST REUNION_GUST_PER USA_SEAHGT USA_SEARAD_NE USA_SEARAD_SE USA_SEARAD_SW USA_SEARAD_NW STORM_SPEED STORM_DIR
1935042S15045 1935 7 SI MM NOT_NAMED 1935-02-11 06:00:00 NR -14.7000 45.1000 reunion main 144 123 _____O________ -1 -14.7000 45.1000 99 9.90000 6 220
1935042S15045 1935 7 SI MM NOT_NAMED 1935-02-11 09:00:00 NR -14.9449 44.8854 main 124 105 _____P________ -1 -14.9449 44.8854 99 5 222
1935042S15045 1935 7 SI MM NOT_NAMED 1935-02-11 12:00:00 NR -15.0685 44.7539 main 105 92 _____P____O___ -1 -15.1913 44.6719 99 -14.7000 45.0000 2 6 221
1935042S15045 1935 7 SI MM NOT_NAMED 1935-02-11 15:00:00 NR -15.3871 44.4879 main 92 68 _____P____P___ -1 -15.4411 44.4610 99 -15.2791 44.5417 2 9 218
1935042S15045 1935 7 SI MM NOT_NAMED 1935-02-11 18:00:00 NR -15.7560 44.1905 main 59 54 _____P____P___ -1 -15.6958 44.2543 99 -15.8362 44.1055 2 10 217
1935042S15045 1935 7 SI MM NOT_NAMED 1935-02-11 21:00:00 NR -16.1537 43.8849 main 54 54 _____P____P___ -1 -15.9573 44.0533 99 -16.3501 43.7165 2 9 215
1935042S15045 1935 7 SI MM NOT_NAMED 1935-02-12 00:00:00 NR -16.5137 43.6298 main 85 77 _____P____O___ -1 -16.2273 43.8595 99 -16.8000 43.4000 2 8 213
1935042S15045 1935 7 SI MM NOT_NAMED 1935-02-12 03:00:00 NR -16.8407 43.4237 main 86 77 _____P____P___ -1 -16.5076 43.6746 99 -17.1739 43.1728 2 7 210
1935042S15045 1935 7 SI MM NOT_NAMED 1935-02-12 06:00:00 TS -17.1086 43.2738 reunion main 77 71 _____O___OP___ -1 -16.8000 43.5000 99 9.90000 -16.8000 43.4000 TC 35 -17.4944 43.0160 2 6 206
1935042S15045 1935 7 SI MM NOT_NAMED 1935-02-12 09:00:00 TS -17.3774 43.1452 main 85 84 _____P___PP___ -1 -17.1058 43.3368 99 -17.0900 43.2501 TC 35 -17.7927 42.9012 2 6 203
1935042S15045 1935 7 SI MM NOT_NAMED 1935-02-12 12:00:00 TS -17.6637 43.0215 main 97 97 _____P___OO___ -1 -17.4251 43.1840 99 -17.4000 43.1000 TC 35 -18.1000 42.8000 2 7 202
1935042S15045 1935 7 SI MM NOT_NAMED 1935-02-12 15:00:00 TS -17.9855 42.8859 main 116 116 _____P___PP___ -1 -17.7574 43.0402 99 -17.7425 42.9500 TC 35 -18.4565 42.6676 2 7 201
1935042S15045 1935 7 SI MM NOT_NAMED 1935-02-12 18:00:00 TS -18.3432 42.7486 main 137 137 _____P___OP___ -1 -18.1023 42.9036 99 -18.1000 42.8000 TC 35 -18.8274 42.5422 2 8 200
1935042S15045 1935 7 SI MM NOT_NAMED 1935-02-12 21:00:00 TS -18.7039 42.6120 main 151 151 _____P___PP___ -1 -18.4594 42.7729 99 -18.4425 42.6425 TC 35 -19.2097 42.4207 2 8 199
1935042S15045 1935 7 SI MM NOT_NAMED 1935-02-13 00:00:00 TS -19.0761 42.4821 main 176 176 _____P___OO___ -1 -18.8283 42.6464 99 -18.8000 42.5000 TC 35 -19.6000 42.3000 2 8 197
1935042S15045 1935 7 SI MM NOT_NAMED 1935-02-13 03:00:00 TS -19.4633 42.3658 main 194 194 _____P___PP___ -1 -19.2087 42.5226 99 -19.1925 42.3999 TC 35 -19.9887 42.1748 2 8 196
1935042S15045 1935 7 SI MM NOT_NAMED 1935-02-13 06:00:00 TS -19.8617 42.2499 reunion main 203 193 _____O___OP___ -1 -19.6000 42.4000 99 9.90000 -19.6000 42.3000 TC 35 -20.3850 42.0497 2 8 197
1935042S15045 1935 7 SI MM NOT_NAMED 1935-02-13 09:00:00 TS -20.2563 42.1118 main 190 179 _____P___PP___ -1 -19.9800 42.2607 99 -20.0000 42.1500 TC 35 -20.7887 41.9248 2 8 198
1935042S15045 1935 7 SI MM NOT_NAMED 1935-02-13 12:00:00 TS -20.6569 41.9741 main 174 171 _____P___OO___ -1 -20.3706 42.1224 99 -20.4000 42.0000 TC 35 -21.2000 41.8000 2 8 197
1935042S15045 1935 7 SI MM NOT_NAMED 1935-02-13 15:00:00 TS -21.0568 41.8511 main 169 168 _____P___PP___ -1 -20.7729 41.9866 99 -20.8000 41.8998 TC 35 -21.5975 41.6668 2 8 196
1935042S15045 1935 7 SI MM NOT_NAMED 1935-02-13 18:00:00 TS -21.4644 41.7299 main 173 164 _____P___OP___ -1 -21.1880 41.8549 99 -21.2000 41.8000 TC 35 -22.0051 41.5349 2 9 196
1935042S15045 1935 7 SI MM NOT_NAMED 1935-02-13 21:00:00 TS -21.8816 41.5965 main 168 166 _____P___PP___ -1 -21.6171 41.7289 99 -21.5925 41.6500 TC 35 -22.4350 41.4105 2 9 196
1935042S15045 1935 7 SI MM NOT_NAMED 1935-02-14 00:00:00 TS -22.3204 41.4700 main 174 174 _____P___OO___ -1 -22.0613 41.6100 99 -22.0000 41.5000 TC 35 -22.9000 41.3000 2 9 193
1935042S15045 1935 7 SI MM NOT_NAMED 1935-02-14 03:00:00 TS -22.7878 41.3675 main 193 193 _____P___PP___ -1 -22.5219 41.4998 99 -22.4275 41.3924 TC 35 -23.4140 41.2103 2 10 190
1935042S15045 1935 7 SI MM NOT_NAMED 1935-02-14 06:00:00 TS -23.2875 41.2782 reunion main 221 221 _____O___OP___ -1 -23.0000 41.4000 99 9.90000 -22.9000 41.3000 TC 35 -23.9625 41.1346 2 11 189
1935042S15045 1935 7 SI MM NOT_NAMED 1935-02-14 09:00:00 TS -23.8442 41.1886 main 244 244 _____P___PP___ -1 -23.5680 41.3067 99 -23.4350 41.1925 TC 35 -24.5297 41.0665 2 12 188
1935042S15045 1935 7 SI MM NOT_NAMED 1935-02-14 12:00:00 TS -24.4213 41.1077 main 265 265 _____P___OO___ -1 -24.1640 41.2231 99 -24.0000 41.1000 TC 35 -25.1000 41.0000 2 12 187
1935042S15045 1935 7 SI MM NOT_NAMED 1935-02-14 15:00:00 TS -24.9936 41.0427 main 285 285 _____P___PP___ -1 -24.7698 41.1487 99 -24.5500 41.0498 TC 35 -25.6609 40.9298 2 11 186
1935042S15045 1935 7 SI MM NOT_NAMED 1935-02-14 18:00:00 TS -25.5005 40.9908 main 299 299 _____P___OP___ -1 -25.3669 41.0830 99 -25.1000 41.0000 TC 35 -26.2125 40.8557 2 10 186
1935042S15045 1935 7 SI MM NOT_NAMED 1935-02-14 21:00:00 TS -25.9863 40.9261 main 330 330 _____P___PP___ -1 -25.9369 41.0257 99 -25.6500 40.9001 TC 35 -26.7578 40.7788 2 10 186
1935042S15045 1935 7 SI MM NOT_NAMED 1935-02-15 00:00:00 TS -26.4682 40.8757 main 352 352 _____P___OO___ -1 -26.4614 40.9763 99 -26.2000 40.8000 TC 35 -27.3000 40.7000 2 9 184
1935042S15045 1935 7 SI MM NOT_NAMED 1935-02-15 03:00:00 TS -26.8646 40.8689 main 375 375 _____P___P____ -1 -26.9219 40.9346 99 -26.7500 40.7374 TC 35 2 8 0
1935042S15045 1935 7 SI MM NOT_NAMED 1935-02-15 06:00:00 TS -27.3000 40.8600 reunion main 401 401 _____O___O____ -1 -27.3000 40.9000 99 9.90000 -27.3000 40.7000 TC 35 2 7 0
1935042S15045 1935 7 SI MM NOT_NAMED 1935-02-15 09:00:00 NR -27.5826 40.8722 main 423 423 _____P________ -1 -27.5826 40.8722 99 TC 2 5 0
1935042S15045 1935 7 SI MM NOT_NAMED 1935-02-15 12:00:00 NR -27.7771 40.8504 main 439 439 _____P________ -1 -27.7771 40.8504 99 3 188
1935042S15045 1935 7 SI MM NOT_NAMED 1935-02-15 15:00:00 NR -27.8961 40.8339 main 454 454 _____P________ -1 -27.8961 40.8339 99 2 188
1935042S15045 1935 7 SI MM NOT_NAMED 1935-02-15 18:00:00 NR -27.9523 40.8218 main 462 462 _____P________ -1 -27.9523 40.8218 99 1 0
1935042S15045 1935 7 SI MM NOT_NAMED 1935-02-15 21:00:00 NR -27.9582 40.8132 main 462 454 _____P________ -1 -27.9582 40.8132 99 0 0
1935042S15045 1935 7 SI MM NOT_NAMED 1935-02-16 00:00:00 NR -27.9264 40.8073 main 454 454 _____P________ -1 -27.9264 40.8073 99 1 0
1935042S15045 1935 7 SI MM NOT_NAMED 1935-02-16 03:00:00 NR -27.8695 40.8032 main 454 446 _____P________ -1 -27.8695 40.8032 99 1 0
1935042S15045 1935 7 SI MM NOT_NAMED 1935-02-16 06:00:00 NR -27.8000 40.8000 reunion main 446 _____O________ -1 -27.8000 40.8000 99 9.90000 1 0

IBTrACS Databaseについて

本データベースは、米国NOAAが公開する1842年以降の世界の熱帯低気圧のベストトラックデータアーカイブInternational Best Track Archive for Climate Stewardship (IBTrACS)を、ウェブで閲覧しやすい形式に変換したものです。

最終更新日:2021-10-08